イスタンブル の空港の天気 - METARとTAF

アタテュルク国際空港(イスタンブル) ( LTBA / IST ) - トルコ イスタンブル
飛行場実況気象(Metar)
観測時間02/18 01:50 EET (02/17 22:50 UTC)
風向・風速北西 2m/s
視程10km以上
天気現象
なし
気温4℃
湿度81%
気圧1025hPa
METARLTBA 172250Z 32003KT CAVOK 04/01 Q1025 NOSIG RMK RWY17L 00000KT RWY05 00000KT RWY23 34001KT
過去の天気等 Google飛行場航空写真 Wunderground天気予報

過去48時間のMETAR

飛行場予報(TAF)
発表時間: 2/17 19:40 EET (2/17 16:40 UTC)
予報対象時間: 17日21時 EET ~ 19日3時 EET
風向・風速北東 4m/s
視程10km以上
なし
TAF LTBA 171640Z 1718/1824 04007KT CAVOK